Terminal Aerodrome Forecast
Issued by NWS Wichita, KS

Home | Current Version | Previous Version | Text Only | Print | Product List | Glossary Off
Versions: 1 2 3 4 5 6 7 8 9 10 11 12 13 14 15

000
FTUS43 KICT 211138
TAFICT
TAF
KICT 211138Z 2112/2212 22007KT P6SM VCSH SCT080 OVC250
     FM211500 19013KT P6SM SCT080 OVC200
     FM211700 19017G25KT P6SM SCT050 OVC250
     FM212300 19013KT P6SM VCTS OVC050CB=

USA.gov is the U.S. government's official web portal to all federal, state and local government web resources and services.